sensor_id;sensor_type;location;lat;lon;timestamp;P1;durP1;ratioP1;P2;durP2;ratioP2
37847;SDS011;23688;33.130;-117.188;2023-03-12T00:01:07;2.95;;;0.90;;
37847;SDS011;23688;33.130;-117.188;2023-03-12T00:03:35;2.35;;;1.00;;
37847;SDS011;23688;33.130;-117.188;2023-03-12T00:06:02;1.38;;;0.75;;
37847;SDS011;23688;33.130;-117.188;2023-03-12T00:08:28;2.20;;;1.30;;
37847;SDS011;23688;33.130;-117.188;2023-03-12T00:10:55;1.55;;;1.00;;
37847;SDS011;23688;33.130;-117.188;2023-03-12T00:13:21;4.97;;;1.40;;
37847;SDS011;23688;33.130;-117.188;2023-03-12T00:15:47;4.18;;;1.40;;
37847;SDS011;23688;33.130;-117.188;2023-03-12T00:18:14;1.35;;;0.85;;
37847;SDS011;23688;33.130;-117.188;2023-03-12T00:20:40;4.95;;;0.90;;
37847;SDS011;23688;33.130;-117.188;2023-03-12T00:23:07;2.03;;;0.98;;
37847;SDS011;23688;33.130;-117.188;2023-03-12T00:25:33;3.15;;;1.17;;
37847;SDS011;23688;33.130;-117.188;2023-03-12T00:28:00;3.40;;;2.33;;
37847;SDS011;23688;33.130;-117.188;2023-03-12T00:30:29;2.15;;;1.05;;
37847;SDS011;23688;33.130;-117.188;2023-03-12T00:32:56;2.85;;;1.10;;
37847;SDS011;23688;33.130;-117.188;2023-03-12T00:35:22;0.85;;;0.77;;
37847;SDS011;23688;33.130;-117.188;2023-03-12T00:37:49;1.77;;;1.45;;
37847;SDS011;23688;33.130;-117.188;2023-03-12T00:40:16;1.98;;;1.30;;
37847;SDS011;23688;33.130;-117.188;2023-03-12T00:42:42;3.03;;;1.23;;
37847;SDS011;23688;33.130;-117.188;2023-03-12T00:45:09;4.15;;;2.17;;
37847;SDS011;23688;33.130;-117.188;2023-03-12T00:47:36;5.88;;;2.50;;
37847;SDS011;23688;33.130;-117.188;2023-03-12T00:50:02;5.40;;;3.08;;
37847;SDS011;23688;33.130;-117.188;2023-03-12T00:52:29;4.28;;;1.88;;
37847;SDS011;23688;33.130;-117.188;2023-03-12T00:54:55;1.60;;;1.30;;
37847;SDS011;23688;33.130;-117.188;2023-03-12T00:57:23;3.05;;;1.77;;
37847;SDS011;23688;33.130;-117.188;2023-03-12T00:59:49;2.15;;;1.90;;
37847;SDS011;23688;33.130;-117.188;2023-03-12T01:02:16;2.45;;;0.90;;
37847;SDS011;23688;33.130;-117.188;2023-03-12T01:04:42;3.60;;;1.75;;
37847;SDS011;23688;33.130;-117.188;2023-03-12T01:07:09;2.42;;;1.35;;
37847;SDS011;23688;33.130;-117.188;2023-03-12T01:09:35;4.10;;;1.23;;
37847;SDS011;23688;33.130;-117.188;2023-03-12T01:12:01;2.95;;;1.20;;
37847;SDS011;23688;33.130;-117.188;2023-03-12T01:14:29;3.75;;;2.85;;
37847;SDS011;23688;33.130;-117.188;2023-03-12T01:16:55;2.63;;;1.98;;
37847;SDS011;23688;33.130;-117.188;2023-03-12T01:19:21;2.30;;;1.60;;
37847;SDS011;23688;33.130;-117.188;2023-03-12T01:21:48;3.78;;;2.35;;
37847;SDS011;23688;33.130;-117.188;2023-03-12T01:24:14;3.17;;;1.33;;
37847;SDS011;23688;33.130;-117.188;2023-03-12T01:26:40;2.17;;;1.80;;
37847;SDS011;23688;33.130;-117.188;2023-03-12T01:29:07;3.03;;;1.80;;
37847;SDS011;23688;33.130;-117.188;2023-03-12T01:31:33;2.05;;;1.80;;
37847;SDS011;23688;33.130;-117.188;2023-03-12T01:33:59;2.88;;;2.30;;
37847;SDS011;23688;33.130;-117.188;2023-03-12T01:36:27;4.88;;;1.60;;
37847;SDS011;23688;33.130;-117.188;2023-03-12T01:38:56;1.33;;;1.23;;
37847;SDS011;23688;33.130;-117.188;2023-03-12T01:41:24;2.15;;;1.35;;
37847;SDS011;23688;33.130;-117.188;2023-03-12T01:46:26;2.47;;;1.33;;
37847;SDS011;23688;33.130;-117.188;2023-03-12T01:49:08;1.33;;;0.90;;
37847;SDS011;23688;33.130;-117.188;2023-03-12T01:51:36;3.50;;;1.33;;
37847;SDS011;23688;33.130;-117.188;2023-03-12T01:54:08;3.67;;;1.27;;
37847;SDS011;23688;33.130;-117.188;2023-03-12T01:56:40;4.72;;;1.55;;
37847;SDS011;23688;33.130;-117.188;2023-03-12T01:59:17;2.78;;;1.30;;
37847;SDS011;23688;33.130;-117.188;2023-03-12T02:01:50;2.53;;;1.23;;
37847;SDS011;23688;33.130;-117.188;2023-03-12T02:04:17;2.45;;;1.05;;
37847;SDS011;23688;33.130;-117.188;2023-03-12T02:07:03;4.93;;;1.30;;
37847;SDS011;23688;33.130;-117.188;2023-03-12T02:09:32;5.03;;;1.20;;
37847;SDS011;23688;33.130;-117.188;2023-03-12T02:12:02;3.95;;;1.45;;
37847;SDS011;23688;33.130;-117.188;2023-03-12T02:14:29;4.70;;;1.65;;
37847;SDS011;23688;33.130;-117.188;2023-03-12T02:16:56;5.22;;;1.70;;
37847;SDS011;23688;33.130;-117.188;2023-03-12T02:22:07;2.33;;;1.05;;
37847;SDS011;23688;33.130;-117.188;2023-03-12T02:24:43;4.97;;;1.20;;
37847;SDS011;23688;33.130;-117.188;2023-03-12T02:27:26;5.63;;;1.77;;
37847;SDS011;23688;33.130;-117.188;2023-03-12T02:29:52;1.60;;;0.80;;
37847;SDS011;23688;33.130;-117.188;2023-03-12T02:32:22;2.67;;;0.80;;
37847;SDS011;23688;33.130;-117.188;2023-03-12T02:34:51;1.88;;;1.13;;
37847;SDS011;23688;33.130;-117.188;2023-03-12T02:37:18;2.50;;;0.95;;
37847;SDS011;23688;33.130;-117.188;2023-03-12T02:39:45;6.22;;;1.20;;
37847;SDS011;23688;33.130;-117.188;2023-03-12T02:42:20;2.83;;;1.20;;
37847;SDS011;23688;33.130;-117.188;2023-03-12T02:47:14;2.45;;;1.42;;
37847;SDS011;23688;33.130;-117.188;2023-03-12T02:49:40;3.17;;;1.90;;
37847;SDS011;23688;33.130;-117.188;2023-03-12T02:52:07;6.85;;;1.38;;
37847;SDS011;23688;33.130;-117.188;2023-03-12T02:54:34;6.38;;;1.88;;
37847;SDS011;23688;33.130;-117.188;2023-03-12T02:57:00;2.28;;;1.52;;
37847;SDS011;23688;33.130;-117.188;2023-03-12T02:59:27;1.42;;;1.10;;
37847;SDS011;23688;33.130;-117.188;2023-03-12T03:01:54;4.47;;;1.80;;
37847;SDS011;23688;33.130;-117.188;2023-03-12T03:06:48;7.97;;;1.83;;
37847;SDS011;23688;33.130;-117.188;2023-03-12T03:09:15;3.60;;;1.70;;
37847;SDS011;23688;33.130;-117.188;2023-03-12T03:11:41;5.72;;;1.60;;
37847;SDS011;23688;33.130;-117.188;2023-03-12T03:14:07;5.47;;;1.65;;
37847;SDS011;23688;33.130;-117.188;2023-03-12T03:16:34;8.57;;;2.13;;
37847;SDS011;23688;33.130;-117.188;2023-03-12T03:19:01;4.93;;;2.10;;
37847;SDS011;23688;33.130;-117.188;2023-03-12T03:21:30;4.78;;;1.60;;
37847;SDS011;23688;33.130;-117.188;2023-03-12T03:23:57;5.72;;;2.22;;
37847;SDS011;23688;33.130;-117.188;2023-03-12T03:26:23;5.40;;;2.00;;
37847;SDS011;23688;33.130;-117.188;2023-03-12T03:28:50;5.53;;;1.80;;
37847;SDS011;23688;33.130;-117.188;2023-03-12T03:31:17;6.07;;;2.05;;
37847;SDS011;23688;33.130;-117.188;2023-03-12T03:33:44;10.98;;;3.90;;
37847;SDS011;23688;33.130;-117.188;2023-03-12T03:36:11;18.30;;;4.97;;
37847;SDS011;23688;33.130;-117.188;2023-03-12T03:38:41;12.15;;;4.95;;
37847;SDS011;23688;33.130;-117.188;2023-03-12T03:41:11;14.65;;;5.38;;
37847;SDS011;23688;33.130;-117.188;2023-03-12T03:43:37;18.75;;;6.00;;
37847;SDS011;23688;33.130;-117.188;2023-03-12T03:46:04;24.67;;;7.30;;
37847;SDS011;23688;33.130;-117.188;2023-03-12T03:48:32;17.48;;;8.30;;
37847;SDS011;23688;33.130;-117.188;2023-03-12T03:50:59;36.63;;;9.18;;
37847;SDS011;23688;33.130;-117.188;2023-03-12T03:53:26;17.65;;;7.07;;
37847;SDS011;23688;33.130;-117.188;2023-03-12T03:55:53;16.95;;;6.20;;
37847;SDS011;23688;33.130;-117.188;2023-03-12T03:58:19;22.23;;;6.30;;
37847;SDS011;23688;33.130;-117.188;2023-03-12T04:00:46;17.17;;;7.03;;
37847;SDS011;23688;33.130;-117.188;2023-03-12T04:03:12;10.88;;;4.78;;
37847;SDS011;23688;33.130;-117.188;2023-03-12T04:05:39;11.65;;;4.82;;
37847;SDS011;23688;33.130;-117.188;2023-03-12T04:08:10;8.15;;;4.30;;
37847;SDS011;23688;33.130;-117.188;2023-03-12T04:10:37;10.05;;;4.82;;
37847;SDS011;23688;33.130;-117.188;2023-03-12T04:13:03;11.75;;;5.22;;
37847;SDS011;23688;33.130;-117.188;2023-03-12T04:15:30;11.77;;;5.03;;
37847;SDS011;23688;33.130;-117.188;2023-03-12T04:17:56;13.50;;;4.20;;
37847;SDS011;23688;33.130;-117.188;2023-03-12T04:20:22;10.55;;;4.65;;
37847;SDS011;23688;33.130;-117.188;2023-03-12T04:22:49;11.45;;;4.15;;
37847;SDS011;23688;33.130;-117.188;2023-03-12T04:25:15;7.20;;;3.20;;
37847;SDS011;23688;33.130;-117.188;2023-03-12T04:27:42;6.85;;;3.40;;
37847;SDS011;23688;33.130;-117.188;2023-03-12T04:30:08;6.20;;;3.67;;
37847;SDS011;23688;33.130;-117.188;2023-03-12T04:32:35;8.70;;;3.50;;
37847;SDS011;23688;33.130;-117.188;2023-03-12T04:35:01;3.97;;;3.00;;
37847;SDS011;23688;33.130;-117.188;2023-03-12T04:37:30;4.05;;;2.80;;
37847;SDS011;23688;33.130;-117.188;2023-03-12T04:39:57;7.30;;;2.83;;
37847;SDS011;23688;33.130;-117.188;2023-03-12T04:42:23;5.53;;;3.22;;
37847;SDS011;23688;33.130;-117.188;2023-03-12T04:44:50;5.22;;;3.75;;
37847;SDS011;23688;33.130;-117.188;2023-03-12T04:47:16;8.55;;;3.38;;
37847;SDS011;23688;33.130;-117.188;2023-03-12T04:49:43;5.57;;;2.55;;
37847;SDS011;23688;33.130;-117.188;2023-03-12T04:52:09;6.05;;;2.90;;
37847;SDS011;23688;33.130;-117.188;2023-03-12T04:54:35;3.60;;;2.30;;
37847;SDS011;23688;33.130;-117.188;2023-03-12T04:57:02;3.92;;;2.33;;
37847;SDS011;23688;33.130;-117.188;2023-03-12T04:59:28;5.25;;;3.13;;
37847;SDS011;23688;33.130;-117.188;2023-03-12T05:01:54;5.95;;;3.20;;
37847;SDS011;23688;33.130;-117.188;2023-03-12T05:04:21;8.88;;;4.97;;
37847;SDS011;23688;33.130;-117.188;2023-03-12T05:06:47;9.88;;;4.82;;
37847;SDS011;23688;33.130;-117.188;2023-03-12T05:09:13;7.85;;;4.43;;
37847;SDS011;23688;33.130;-117.188;2023-03-12T05:11:40;17.40;;;11.27;;
37847;SDS011;23688;33.130;-117.188;2023-03-12T05:14:06;11.88;;;5.90;;
37847;SDS011;23688;33.130;-117.188;2023-03-12T05:16:33;8.85;;;4.70;;
37847;SDS011;23688;33.130;-117.188;2023-03-12T05:19:00;7.93;;;4.70;;
37847;SDS011;23688;33.130;-117.188;2023-03-12T05:21:26;39.15;;;6.35;;
37847;SDS011;23688;33.130;-117.188;2023-03-12T05:23:53;300.02;;;17.48;;
37847;SDS011;23688;33.130;-117.188;2023-03-12T05:26:23;26.58;;;6.50;;
37847;SDS011;23688;33.130;-117.188;2023-03-12T05:28:52;28.02;;;5.43;;
37847;SDS011;23688;33.130;-117.188;2023-03-12T05:31:19;29.63;;;7.35;;
37847;SDS011;23688;33.130;-117.188;2023-03-12T05:33:48;16.60;;;5.03;;
37847;SDS011;23688;33.130;-117.188;2023-03-12T05:36:15;43.22;;;6.05;;
37847;SDS011;23688;33.130;-117.188;2023-03-12T05:38:42;86.57;;;10.07;;
37847;SDS011;23688;33.130;-117.188;2023-03-12T05:41:08;40.60;;;8.93;;
37847;SDS011;23688;33.130;-117.188;2023-03-12T05:43:42;63.42;;;10.32;;
37847;SDS011;23688;33.130;-117.188;2023-03-12T05:46:08;57.75;;;10.85;;
37847;SDS011;23688;33.130;-117.188;2023-03-12T05:48:37;18.70;;;7.07;;
37847;SDS011;23688;33.130;-117.188;2023-03-12T05:51:03;20.48;;;7.78;;
37847;SDS011;23688;33.130;-117.188;2023-03-12T05:53:29;47.10;;;8.85;;
37847;SDS011;23688;33.130;-117.188;2023-03-12T05:56:01;14.13;;;5.75;;
37847;SDS011;23688;33.130;-117.188;2023-03-12T05:58:29;48.65;;;8.07;;
37847;SDS011;23688;33.130;-117.188;2023-03-12T06:00:55;22.08;;;6.93;;
37847;SDS011;23688;33.130;-117.188;2023-03-12T06:03:22;23.70;;;8.38;;
37847;SDS011;23688;33.130;-117.188;2023-03-12T06:05:49;22.45;;;8.45;;
37847;SDS011;23688;33.130;-117.188;2023-03-12T06:08:20;45.95;;;11.80;;
37847;SDS011;23688;33.130;-117.188;2023-03-12T06:10:49;49.30;;;9.00;;
37847;SDS011;23688;33.130;-117.188;2023-03-12T06:13:17;34.60;;;9.88;;
37847;SDS011;23688;33.130;-117.188;2023-03-12T06:15:43;62.88;;;8.85;;
37847;SDS011;23688;33.130;-117.188;2023-03-12T06:18:10;98.95;;;9.82;;
37847;SDS011;23688;33.130;-117.188;2023-03-12T06:20:36;30.35;;;5.70;;
37847;SDS011;23688;33.130;-117.188;2023-03-12T06:23:02;37.80;;;6.53;;
37847;SDS011;23688;33.130;-117.188;2023-03-12T06:25:28;32.50;;;6.15;;
37847;SDS011;23688;33.130;-117.188;2023-03-12T06:27:55;24.58;;;5.65;;
37847;SDS011;23688;33.130;-117.188;2023-03-12T06:30:21;30.60;;;6.63;;
37847;SDS011;23688;33.130;-117.188;2023-03-12T06:32:47;19.25;;;5.32;;
37847;SDS011;23688;33.130;-117.188;2023-03-12T06:35:13;12.75;;;5.78;;
37847;SDS011;23688;33.130;-117.188;2023-03-12T06:37:40;28.65;;;6.75;;
37847;SDS011;23688;33.130;-117.188;2023-03-12T06:40:07;13.13;;;7.32;;
37847;SDS011;23688;33.130;-117.188;2023-03-12T06:42:35;14.75;;;6.53;;
37847;SDS011;23688;33.130;-117.188;2023-03-12T06:45:02;29.33;;;8.43;;
37847;SDS011;23688;33.130;-117.188;2023-03-12T06:47:29;25.35;;;7.70;;
37847;SDS011;23688;33.130;-117.188;2023-03-12T06:49:55;19.15;;;5.88;;
37847;SDS011;23688;33.130;-117.188;2023-03-12T06:52:21;30.88;;;7.45;;
37847;SDS011;23688;33.130;-117.188;2023-03-12T06:54:47;88.68;;;9.40;;
37847;SDS011;23688;33.130;-117.188;2023-03-12T06:57:14;88.90;;;7.40;;
37847;SDS011;23688;33.130;-117.188;2023-03-12T06:59:41;17.48;;;4.03;;
37847;SDS011;23688;33.130;-117.188;2023-03-12T07:02:10;4.78;;;2.90;;
37847;SDS011;23688;33.130;-117.188;2023-03-12T07:04:36;4.13;;;2.75;;
37847;SDS011;23688;33.130;-117.188;2023-03-12T07:07:03;6.72;;;3.88;;
37847;SDS011;23688;33.130;-117.188;2023-03-12T07:09:29;8.38;;;3.45;;
37847;SDS011;23688;33.130;-117.188;2023-03-12T07:14:24;4.82;;;3.00;;
37847;SDS011;23688;33.130;-117.188;2023-03-12T07:16:50;8.23;;;4.25;;
37847;SDS011;23688;33.130;-117.188;2023-03-12T07:19:17;5.68;;;3.58;;
37847;SDS011;23688;33.130;-117.188;2023-03-12T07:21:43;9.27;;;5.03;;
37847;SDS011;23688;33.130;-117.188;2023-03-12T07:24:09;10.90;;;3.90;;
37847;SDS011;23688;33.130;-117.188;2023-03-12T07:26:36;5.40;;;3.67;;
37847;SDS011;23688;33.130;-117.188;2023-03-12T07:29:02;9.25;;;4.55;;
37847;SDS011;23688;33.130;-117.188;2023-03-12T07:31:29;8.88;;;4.85;;
37847;SDS011;23688;33.130;-117.188;2023-03-12T07:33:55;7.90;;;3.50;;
37847;SDS011;23688;33.130;-117.188;2023-03-12T07:36:22;13.30;;;3.85;;
37847;SDS011;23688;33.130;-117.188;2023-03-12T07:38:48;5.43;;;2.95;;
37847;SDS011;23688;33.130;-117.188;2023-03-12T07:41:14;22.15;;;2.97;;
37847;SDS011;23688;33.130;-117.188;2023-03-12T07:43:42;236.38;;;12.43;;
37847;SDS011;23688;33.130;-117.188;2023-03-12T07:46:09;249.00;;;11.77;;
37847;SDS011;23688;33.130;-117.188;2023-03-12T07:48:35;322.27;;;15.93;;
37847;SDS011;23688;33.130;-117.188;2023-03-12T07:51:02;363.80;;;17.42;;
37847;SDS011;23688;33.130;-117.188;2023-03-12T07:53:28;334.20;;;16.58;;
37847;SDS011;23688;33.130;-117.188;2023-03-12T07:55:54;47.60;;;3.97;;
37847;SDS011;23688;33.130;-117.188;2023-03-12T07:58:21;160.60;;;8.02;;
37847;SDS011;23688;33.130;-117.188;2023-03-12T08:00:47;175.73;;;7.72;;
37847;SDS011;23688;33.130;-117.188;2023-03-12T08:03:13;220.52;;;12.60;;
37847;SDS011;23688;33.130;-117.188;2023-03-12T08:05:41;229.38;;;9.45;;
37847;SDS011;23688;33.130;-117.188;2023-03-12T08:08:08;216.25;;;9.10;;
37847;SDS011;23688;33.130;-117.188;2023-03-12T08:10:35;109.50;;;5.32;;
37847;SDS011;23688;33.130;-117.188;2023-03-12T08:13:01;301.45;;;12.15;;
37847;SDS011;23688;33.130;-117.188;2023-03-12T08:15:27;198.15;;;9.00;;
37847;SDS011;23688;33.130;-117.188;2023-03-12T08:17:54;233.15;;;9.05;;
37847;SDS011;23688;33.130;-117.188;2023-03-12T08:20:20;274.42;;;14.77;;
37847;SDS011;23688;33.130;-117.188;2023-03-12T08:22:46;246.90;;;10.35;;
37847;SDS011;23688;33.130;-117.188;2023-03-12T08:25:13;286.92;;;14.80;;
37847;SDS011;23688;33.130;-117.188;2023-03-12T08:27:43;253.68;;;12.70;;
37847;SDS011;23688;33.130;-117.188;2023-03-12T08:30:10;280.52;;;14.05;;
37847;SDS011;23688;33.130;-117.188;2023-03-12T08:32:37;294.83;;;13.63;;
37847;SDS011;23688;33.130;-117.188;2023-03-12T08:35:04;221.15;;;11.15;;
37847;SDS011;23688;33.130;-117.188;2023-03-12T08:37:31;286.60;;;16.92;;
37847;SDS011;23688;33.130;-117.188;2023-03-12T08:40:01;196.10;;;12.45;;
37847;SDS011;23688;33.130;-117.188;2023-03-12T08:42:40;30.05;;;4.97;;
37847;SDS011;23688;33.130;-117.188;2023-03-12T08:45:11;28.13;;;4.95;;
37847;SDS011;23688;33.130;-117.188;2023-03-12T08:47:40;15.57;;;4.55;;
37847;SDS011;23688;33.130;-117.188;2023-03-12T08:50:09;8.95;;;3.28;;
37847;SDS011;23688;33.130;-117.188;2023-03-12T08:55:04;12.85;;;3.75;;
37847;SDS011;23688;33.130;-117.188;2023-03-12T08:57:31;12.65;;;3.13;;
37847;SDS011;23688;33.130;-117.188;2023-03-12T08:59:59;8.30;;;3.28;;
37847;SDS011;23688;33.130;-117.188;2023-03-12T09:02:25;20.52;;;4.25;;
37847;SDS011;23688;33.130;-117.188;2023-03-12T09:04:53;45.40;;;5.13;;
37847;SDS011;23688;33.130;-117.188;2023-03-12T09:07:20;19.42;;;3.63;;
37847;SDS011;23688;33.130;-117.188;2023-03-12T09:09:47;19.23;;;3.90;;
37847;SDS011;23688;33.130;-117.188;2023-03-12T09:12:14;26.40;;;4.22;;
37847;SDS011;23688;33.130;-117.188;2023-03-12T09:14:40;18.92;;;3.83;;
37847;SDS011;23688;33.130;-117.188;2023-03-12T09:17:07;13.57;;;3.28;;
37847;SDS011;23688;33.130;-117.188;2023-03-12T09:19:34;5.30;;;3.20;;
37847;SDS011;23688;33.130;-117.188;2023-03-12T09:22:01;7.15;;;2.78;;
37847;SDS011;23688;33.130;-117.188;2023-03-12T09:24:28;8.27;;;2.80;;
37847;SDS011;23688;33.130;-117.188;2023-03-12T09:26:55;4.32;;;2.35;;
37847;SDS011;23688;33.130;-117.188;2023-03-12T09:29:22;5.20;;;1.67;;
37847;SDS011;23688;33.130;-117.188;2023-03-12T09:31:50;3.60;;;2.03;;
37847;SDS011;23688;33.130;-117.188;2023-03-12T09:34:17;4.32;;;2.10;;
37847;SDS011;23688;33.130;-117.188;2023-03-12T09:36:43;4.70;;;2.42;;
37847;SDS011;23688;33.130;-117.188;2023-03-12T09:39:10;11.82;;;3.00;;
37847;SDS011;23688;33.130;-117.188;2023-03-12T09:41:38;7.47;;;3.05;;
37847;SDS011;23688;33.130;-117.188;2023-03-12T09:44:40;24.10;;;3.45;;
37847;SDS011;23688;33.130;-117.188;2023-03-12T09:47:11;17.35;;;3.92;;
37847;SDS011;23688;33.130;-117.188;2023-03-12T09:49:52;55.92;;;5.00;;
37847;SDS011;23688;33.130;-117.188;2023-03-12T09:52:26;39.67;;;4.53;;
37847;SDS011;23688;33.130;-117.188;2023-03-12T09:57:39;138.13;;;7.60;;
37847;SDS011;23688;33.130;-117.188;2023-03-12T10:00:11;27.33;;;5.18;;
37847;SDS011;23688;33.130;-117.188;2023-03-12T10:08:11;13.60;;;4.78;;
37847;SDS011;23688;33.130;-117.188;2023-03-12T10:18:29;7.85;;;2.50;;
37847;SDS011;23688;33.130;-117.188;2023-03-12T10:26:36;6.57;;;2.42;;
37847;SDS011;23688;33.130;-117.188;2023-03-12T10:29:25;6.45;;;2.13;;
37847;SDS011;23688;33.130;-117.188;2023-03-12T10:31:58;4.50;;;1.70;;
37847;SDS011;23688;33.130;-117.188;2023-03-12T10:34:33;7.18;;;2.08;;
37847;SDS011;23688;33.130;-117.188;2023-03-12T10:37:24;4.60;;;2.08;;
37847;SDS011;23688;33.130;-117.188;2023-03-12T10:39:52;8.90;;;2.33;;
37847;SDS011;23688;33.130;-117.188;2023-03-12T10:42:21;8.63;;;2.20;;
37847;SDS011;23688;33.130;-117.188;2023-03-12T10:44:53;9.95;;;2.78;;
37847;SDS011;23688;33.130;-117.188;2023-03-12T10:50:13;8.38;;;2.40;;
37847;SDS011;23688;33.130;-117.188;2023-03-12T10:52:44;22.02;;;3.00;;
37847;SDS011;23688;33.130;-117.188;2023-03-12T10:55:30;25.73;;;2.75;;
37847;SDS011;23688;33.130;-117.188;2023-03-12T10:57:57;5.88;;;2.47;;
37847;SDS011;23688;33.130;-117.188;2023-03-12T11:00:28;16.27;;;2.67;;
37847;SDS011;23688;33.130;-117.188;2023-03-12T11:03:17;26.90;;;2.90;;
37847;SDS011;23688;33.130;-117.188;2023-03-12T11:05:54;6.82;;;2.10;;
37847;SDS011;23688;33.130;-117.188;2023-03-12T11:08:28;8.75;;;1.75;;
37847;SDS011;23688;33.130;-117.188;2023-03-12T11:11:00;4.97;;;2.10;;
37847;SDS011;23688;33.130;-117.188;2023-03-12T11:13:29;79.43;;;5.60;;
37847;SDS011;23688;33.130;-117.188;2023-03-12T11:16:02;103.82;;;6.80;;
37847;SDS011;23688;33.130;-117.188;2023-03-12T11:21:27;102.28;;;4.47;;
37847;SDS011;23688;33.130;-117.188;2023-03-12T11:24:11;15.63;;;1.00;;
37847;SDS011;23688;33.130;-117.188;2023-03-12T11:29:35;44.55;;;1.80;;
37847;SDS011;23688;33.130;-117.188;2023-03-12T11:34:38;57.42;;;2.35;;
37847;SDS011;23688;33.130;-117.188;2023-03-12T11:37:09;64.97;;;3.20;;
37847;SDS011;23688;33.130;-117.188;2023-03-12T11:42:44;5.88;;;1.70;;
37847;SDS011;23688;33.130;-117.188;2023-03-12T11:48:35;44.22;;;4.22;;
37847;SDS011;23688;33.130;-117.188;2023-03-12T11:56:46;196.68;;;10.35;;
37847;SDS011;23688;33.130;-117.188;2023-03-12T12:07:50;383.15;;;14.57;;
37847;SDS011;23688;33.130;-117.188;2023-03-12T12:10:45;357.15;;;14.85;;
37847;SDS011;23688;33.130;-117.188;2023-03-12T12:27:18;246.75;;;11.02;;
37847;SDS011;23688;33.130;-117.188;2023-03-12T12:37:41;148.45;;;7.45;;
37847;SDS011;23688;33.130;-117.188;2023-03-12T12:42:51;128.68;;;8.43;;
37847;SDS011;23688;33.130;-117.188;2023-03-12T12:45:24;233.40;;;12.68;;
37847;SDS011;23688;33.130;-117.188;2023-03-12T12:48:39;248.98;;;13.73;;
37847;SDS011;23688;33.130;-117.188;2023-03-12T12:50:44;118.68;;;7.45;;
37847;SDS011;23688;33.130;-117.188;2023-03-12T12:53:20;287.50;;;14.48;;
37847;SDS011;23688;33.130;-117.188;2023-03-12T13:01:18;121.93;;;6.70;;
37847;SDS011;23688;33.130;-117.188;2023-03-12T13:03:45;48.58;;;5.50;;
37847;SDS011;23688;33.130;-117.188;2023-03-12T13:06:13;58.08;;;4.32;;
37847;SDS011;23688;33.130;-117.188;2023-03-12T13:13:41;9.90;;;3.05;;
37847;SDS011;23688;33.130;-117.188;2023-03-12T13:16:18;22.58;;;2.92;;
37847;SDS011;23688;33.130;-117.188;2023-03-12T13:18:59;25.73;;;2.40;;
37847;SDS011;23688;33.130;-117.188;2023-03-12T13:22:05;17.25;;;2.33;;
37847;SDS011;23688;33.130;-117.188;2023-03-12T13:24:59;12.95;;;2.08;;
37847;SDS011;23688;33.130;-117.188;2023-03-12T13:27:55;5.30;;;1.70;;
37847;SDS011;23688;33.130;-117.188;2023-03-12T13:37:58;5.53;;;2.08;;
37847;SDS011;23688;33.130;-117.188;2023-03-12T13:45:30;10.43;;;1.63;;
37847;SDS011;23688;33.130;-117.188;2023-03-12T13:47:58;8.65;;;1.80;;
37847;SDS011;23688;33.130;-117.188;2023-03-12T13:50:27;312.48;;;11.75;;
37847;SDS011;23688;33.130;-117.188;2023-03-12T13:55:41;236.30;;;10.38;;
37847;SDS011;23688;33.130;-117.188;2023-03-12T13:58:14;306.80;;;12.80;;
37847;SDS011;23688;33.130;-117.188;2023-03-12T14:01:05;188.38;;;7.43;;
37847;SDS011;23688;33.130;-117.188;2023-03-12T14:03:39;62.97;;;2.38;;
37847;SDS011;23688;33.130;-117.188;2023-03-12T14:06:10;49.50;;;2.30;;
37847;SDS011;23688;33.130;-117.188;2023-03-12T14:11:48;152.43;;;7.72;;
37847;SDS011;23688;33.130;-117.188;2023-03-12T14:14:31;123.38;;;6.22;;
37847;SDS011;23688;33.130;-117.188;2023-03-12T14:17:33;103.70;;;5.18;;
37847;SDS011;23688;33.130;-117.188;2023-03-12T14:22:32;185.10;;;6.35;;
37847;SDS011;23688;33.130;-117.188;2023-03-12T14:25:16;127.20;;;5.82;;
37847;SDS011;23688;33.130;-117.188;2023-03-12T14:28:03;125.05;;;5.30;;
37847;SDS011;23688;33.130;-117.188;2023-03-12T14:33:20;63.08;;;3.03;;
37847;SDS011;23688;33.130;-117.188;2023-03-12T14:36:08;52.42;;;3.30;;
37847;SDS011;23688;33.130;-117.188;2023-03-12T14:38:44;56.95;;;3.65;;
37847;SDS011;23688;33.130;-117.188;2023-03-12T14:41:20;15.23;;;2.53;;
37847;SDS011;23688;33.130;-117.188;2023-03-12T14:43:51;37.70;;;3.33;;
37847;SDS011;23688;33.130;-117.188;2023-03-12T14:46:20;16.92;;;3.00;;
37847;SDS011;23688;33.130;-117.188;2023-03-12T14:48:49;12.18;;;2.38;;
37847;SDS011;23688;33.130;-117.188;2023-03-12T14:51:24;8.75;;;2.05;;
37847;SDS011;23688;33.130;-117.188;2023-03-12T14:53:55;5.97;;;2.08;;
37847;SDS011;23688;33.130;-117.188;2023-03-12T14:56:28;10.00;;;2.70;;
37847;SDS011;23688;33.130;-117.188;2023-03-12T14:59:00;8.98;;;3.03;;
37847;SDS011;23688;33.130;-117.188;2023-03-12T15:01:45;9.63;;;3.00;;
37847;SDS011;23688;33.130;-117.188;2023-03-12T15:04:13;6.47;;;1.67;;
37847;SDS011;23688;33.130;-117.188;2023-03-12T15:06:48;3.55;;;1.45;;
37847;SDS011;23688;33.130;-117.188;2023-03-12T15:09:24;3.42;;;1.77;;
37847;SDS011;23688;33.130;-117.188;2023-03-12T15:14:41;4.60;;;2.38;;
37847;SDS011;23688;33.130;-117.188;2023-03-12T15:17:11;4.35;;;1.60;;
37847;SDS011;23688;33.130;-117.188;2023-03-12T15:19:44;4.03;;;1.75;;
37847;SDS011;23688;33.130;-117.188;2023-03-12T15:22:14;3.50;;;1.38;;
37847;SDS011;23688;33.130;-117.188;2023-03-12T15:24:43;3.92;;;1.70;;
37847;SDS011;23688;33.130;-117.188;2023-03-12T15:29:54;2.60;;;1.10;;
37847;SDS011;23688;33.130;-117.188;2023-03-12T15:32:23;3.47;;;1.30;;
37847;SDS011;23688;33.130;-117.188;2023-03-12T15:34:50;4.72;;;1.85;;
37847;SDS011;23688;33.130;-117.188;2023-03-12T15:37:20;5.43;;;1.98;;
37847;SDS011;23688;33.130;-117.188;2023-03-12T15:39:48;3.97;;;2.13;;
37847;SDS011;23688;33.130;-117.188;2023-03-12T15:42:18;4.55;;;2.20;;
37847;SDS011;23688;33.130;-117.188;2023-03-12T15:44:57;3.50;;;2.15;;
37847;SDS011;23688;33.130;-117.188;2023-03-12T15:47:30;5.55;;;2.28;;
37847;SDS011;23688;33.130;-117.188;2023-03-12T15:52:57;6.70;;;2.40;;
37847;SDS011;23688;33.130;-117.188;2023-03-12T15:55:33;4.70;;;2.40;;
37847;SDS011;23688;33.130;-117.188;2023-03-12T15:58:00;4.75;;;2.70;;
37847;SDS011;23688;33.130;-117.188;2023-03-12T16:00:37;4.63;;;2.40;;
37847;SDS011;23688;33.130;-117.188;2023-03-12T16:03:14;5.55;;;1.90;;
37847;SDS011;23688;33.130;-117.188;2023-03-12T16:05:43;2.83;;;2.00;;
37847;SDS011;23688;33.130;-117.188;2023-03-12T16:10:41;7.00;;;1.77;;
37847;SDS011;23688;33.130;-117.188;2023-03-12T16:13:08;3.20;;;1.92;;
37847;SDS011;23688;33.130;-117.188;2023-03-12T16:15:38;3.65;;;1.35;;
37847;SDS011;23688;33.130;-117.188;2023-03-12T16:18:10;3.15;;;1.30;;
37847;SDS011;23688;33.130;-117.188;2023-03-12T16:20:45;2.50;;;1.20;;
37847;SDS011;23688;33.130;-117.188;2023-03-12T16:23:12;3.63;;;1.00;;
37847;SDS011;23688;33.130;-117.188;2023-03-12T16:25:43;2.60;;;1.40;;
37847;SDS011;23688;33.130;-117.188;2023-03-12T16:28:12;3.70;;;1.60;;
37847;SDS011;23688;33.130;-117.188;2023-03-12T16:30:41;3.03;;;1.45;;
37847;SDS011;23688;33.130;-117.188;2023-03-12T16:33:11;4.25;;;1.30;;